Time;durP1;ratioP1;P1;durP2;ratioP2;P2;SDS_P1;SDS_P2;PMS_P1;PMS_P2;Temp;Humidity;BMP_temperature;BMP_pressure;BME280_temperature;BME280_humidity;BME280_pressure;Samples;Min_cycle;Max_cycle;Signal;HPM_P1;HPM_P2
2022/09/10 00:00:39;;;;;;;1.17;0.82;;;;;;;15.23;100.00;100772.16;6272669;28;20041;-74
2022/09/10 00:03:42;;;;;;;1.48;1.00;;;;;;;15.25;100.00;100776.47;6273203;28;20128;-74
2022/09/10 00:06:44;;;;;;;1.63;0.95;;;;;;;15.23;100.00;100774.78;6272682;28;20055;-73
2022/09/10 00:09:45;;;;;;;1.20;0.90;;;;;;;15.23;100.00;100773.94;6272718;28;20052;-74
2022/09/10 00:12:48;;;;;;;0.60;0.60;;;;;;;15.20;100.00;100767.06;6272713;28;20416;-74
2022/09/10 00:15:53;;;;;;;1.02;0.73;;;;;;;15.19;100.00;100773.31;6272543;28;20485;-74
2022/09/10 00:18:56;;;;;;;11.80;0.90;;;;;;;15.19;100.00;100770.66;6272572;28;20132;-74
2022/09/10 00:21:57;;;;;;;0.80;0.80;;;;;;;15.20;100.00;100776.81;6271828;28;20056;-74
2022/09/10 00:24:59;;;;;;;2.80;0.70;;;;;;;15.18;100.00;100771.63;6272227;28;20049;-74
2022/09/10 00:28:02;;;;;;;0.75;0.70;;;;;;;15.19;100.00;100780.41;6272500;28;20056;-74
2022/09/10 00:31:03;;;;;;;2.22;0.80;;;;;;;15.20;100.00;100777.66;6272058;28;20045;-74
2022/09/10 00:34:05;;;;;;;1.25;0.50;;;;;;;15.20;100.00;100780.28;6271972;28;20516;-74
2022/09/10 00:37:07;;;;;;;0.60;0.60;;;;;;;15.19;100.00;100778.63;6272302;28;20111;-74
2022/09/10 00:40:10;;;;;;;1.83;0.77;;;;;;;15.18;100.00;100769.00;6271763;28;20092;-74
2022/09/10 00:43:14;;;;;;;0.68;0.60;;;;;;;15.15;100.00;100774.50;6272219;28;20055;-74
2022/09/10 00:46:25;;;;;;;1.98;0.95;;;;;;;15.14;100.00;100771.97;6271924;28;20049;-74
2022/09/10 00:49:32;;;;;;;0.98;0.60;;;;;;;15.14;100.00;100779.91;6272065;28;20044;-74
2022/09/10 00:52:34;;;;;;;0.40;0.40;;;;;;;15.14;100.00;100777.25;6271677;28;20404;-74
2022/09/10 00:55:39;;;;;;;3.17;0.70;;;;;;;15.14;100.00;100779.91;6271528;28;20056;-74
2022/09/10 00:58:44;;;;;;;1.08;0.70;;;;;;;15.13;100.00;100780.88;6271766;28;20417;-75
2022/09/10 01:01:48;;;;;;;1.25;0.82;;;;;;;15.13;100.00;100778.22;6271627;28;20048;-74
2022/09/10 01:04:50;;;;;;;0.80;0.50;;;;;;;15.13;100.00;100770.28;6270992;28;20053;-74
2022/09/10 01:07:52;;;;;;;2.45;1.15;;;;;;;15.13;100.00;100768.47;6271968;28;20053;-74
2022/09/10 01:11:08;;;;;;;1.02;0.77;;;;;;;15.15;100.00;100763.06;6271061;28;20131;-74
2022/09/10 01:14:43;;;;;;;0.70;0.60;;;;;;;15.15;100.00;100773.66;6271470;28;20140;-74
2022/09/10 01:17:59;;;;;;;1.70;0.90;;;;;;;15.12;100.00;100768.56;6271410;28;20048;-74
2022/09/10 01:21:16;;;;;;;0.52;0.52;;;;;;;15.12;100.00;100773.88;6271238;28;20052;-74
2022/09/10 01:24:51;;;;;;;0.70;0.70;;;;;;;15.13;100.00;100776.41;6270756;28;20060;-72
2022/09/10 01:27:57;;;;;;;1.13;0.63;;;;;;;15.08;100.00;100783.84;6259939;28;20049;-75
2022/09/10 01:31:05;;;;;;;2.25;0.63;;;;;;;15.11;100.00;100780.13;6271140;28;20044;-74
2022/09/10 01:34:11;;;;;;;1.35;0.60;;;;;;;15.10;100.00;100779.28;6270671;28;20060;-74
2022/09/10 01:37:20;;;;;;;0.75;0.70;;;;;;;15.07;100.00;100779.47;6271456;28;20056;-74
2022/09/10 01:40:28;;;;;;;1.33;0.70;;;;;;;15.05;100.00;100786.69;6270700;28;20045;-73
2022/09/10 01:43:32;;;;;;;1.13;0.90;;;;;;;15.01;100.00;100782.59;6271091;28;20294;-74
2022/09/10 01:46:43;;;;;;;1.17;0.63;;;;;;;15.02;100.00;100783.44;6270522;28;20566;-74
2022/09/10 01:49:59;;;;;;;0.68;0.52;;;;;;;15.00;100.00;100780.06;6270997;28;20048;-74
2022/09/10 01:53:17;;;;;;;1.42;0.65;;;;;;;14.96;100.00;100782.91;6270961;28;20155;-74
2022/09/10 01:56:34;;;;;;;4.07;0.80;;;;;;;14.98;100.00;100788.91;6270776;28;20052;-74
2022/09/10 01:59:45;;;;;;;1.15;0.73;;;;;;;14.99;100.00;100792.44;6270833;28;20049;-74
2022/09/10 02:02:51;;;;;;;0.98;0.77;;;;;;;14.99;100.00;100779.22;6268188;28;20045;-72
2022/09/10 02:05:54;;;;;;;0.80;0.80;;;;;;;15.00;100.00;100782.69;6270335;28;20041;-72
2022/09/10 02:08:58;;;;;;;0.85;0.60;;;;;;;14.98;100.00;100786.28;6270699;28;20049;-72
2022/09/10 02:12:00;;;;;;;1.92;0.80;;;;;;;14.97;100.00;100784.59;6270107;28;20052;-74
2022/09/10 02:15:05;;;;;;;1.80;0.85;;;;;;;14.97;100.00;100786.41;6270318;28;20142;-72
2022/09/10 02:18:06;;;;;;;1.65;0.90;;;;;;;14.96;100.00;100785.56;6271024;28;20052;-74
2022/09/10 02:21:08;;;;;;;0.98;0.60;;;;;;;14.97;100.00;100775.81;6270320;28;20643;-74
2022/09/10 02:24:12;;;;;;;3.40;1.15;;;;;;;14.96;100.00;100782.06;6270551;28;20444;-74
2022/09/10 02:27:13;;;;;;;1.67;0.77;;;;;;;14.94;100.00;100784.84;6270562;28;20060;-74
2022/09/10 02:30:18;;;;;;;1.98;0.75;;;;;;;14.94;100.00;100789.25;6270510;28;20049;-74
2022/09/10 02:33:19;;;;;;;1.23;0.98;;;;;;;14.95;100.00;100788.31;6270589;28;20134;-74
2022/09/10 02:36:24;;;;;;;0.60;0.60;;;;;;;14.96;100.00;100785.56;6270333;28;20049;-75
2022/09/10 02:39:26;;;;;;;0.80;0.70;;;;;;;14.94;100.00;100792.78;6270614;28;20053;-76
2022/09/10 02:42:27;;;;;;;1.20;0.80;;;;;;;14.94;100.00;100794.53;6270112;28;20048;-76
2022/09/10 02:45:30;;;;;;;1.02;0.75;;;;;;;14.91;100.00;100790.34;6270953;28;20056;-76
2022/09/10 02:48:31;;;;;;;1.05;0.90;;;;;;;14.92;100.00;100793.81;6275037;28;20060;-76
2022/09/10 02:51:32;;;;;;;1.50;0.95;;;;;;;14.92;100.00;100793.81;6274301;28;20417;-75
2022/09/10 02:54:34;;;;;;;1.13;0.85;;;;;;;14.93;100.00;100795.50;6274218;28;20059;-76
2022/09/10 02:57:36;;;;;;;1.00;0.90;;;;;;;14.91;100.00;100790.34;6274871;28;20052;-76
2022/09/10 03:00:38;;;;;;;5.05;1.25;;;;;;;14.92;100.00;100792.00;6271270;28;20052;-76
2022/09/10 03:03:41;;;;;;;1.08;0.70;;;;;;;14.92;100.00;100792.00;6273808;28;20049;-75
2022/09/10 03:06:42;;;;;;;1.92;1.05;;;;;;;14.93;100.00;100795.50;6249676;28;20504;-75
2022/09/10 03:09:43;;;;;;;1.40;1.15;;;;;;;14.92;100.00;100801.75;6249321;28;20515;-75
2022/09/10 03:12:46;;;;;;;1.60;1.10;;;;;;;14.93;100.00;100796.34;6249791;28;20045;-75
2022/09/10 03:15:50;;;;;;;4.18;1.10;;;;;;;14.95;100.00;100791.81;6269753;28;20048;-75
2022/09/10 03:18:51;;;;;;;0.90;0.80;;;;;;;14.95;100.00;100797.09;6274426;28;20107;-75
2022/09/10 03:21:52;;;;;;;1.92;1.42;;;;;;;14.94;100.00;100802.47;6273746;28;20481;-75
2022/09/10 03:24:54;;;;;;;1.30;1.17;;;;;;;14.93;100.00;100803.44;6273535;28;20048;-74
2022/09/10 03:27:55;;;;;;;1.55;1.33;;;;;;;14.88;100.00;100797.63;6274071;28;20090;-75
2022/09/10 03:30:58;;;;;;;1.05;0.95;;;;;;;14.90;100.00;100806.31;6273463;28;20052;-75
2022/09/10 03:34:00;;;;;;;1.00;0.95;;;;;;;14.87;100.00;100802.09;6273337;28;20459;-75
2022/09/10 03:37:02;;;;;;;1.17;0.98;;;;;;;14.87;100.00;100807.38;6273568;28;20055;-75
2022/09/10 03:40:04;;;;;;;2.13;1.20;;;;;;;14.89;100.00;100800.16;6273546;28;20145;-76
2022/09/10 03:43:06;;;;;;;1.63;1.42;;;;;;;14.91;100.00;100810.66;6273450;28;20134;-75
2022/09/10 03:46:10;;;;;;;1.95;1.23;;;;;;;14.92;100.00;100805.25;6273356;28;20056;-75
2022/09/10 03:49:12;;;;;;;3.92;2.42;;;;;;;14.90;100.00;100806.31;6273255;28;20049;-76
2022/09/10 03:52:13;;;;;;;2.08;1.45;;;;;;;14.92;100.00;100805.25;6273228;28;20041;-75
2022/09/10 03:55:15;;;;;;;2.33;1.25;;;;;;;14.93;100.00;100806.09;6272957;28;20049;-75
2022/09/10 03:58:17;;;;;;;1.48;1.25;;;;;;;14.93;100.00;100808.75;6273145;28;20452;-75
2022/09/10 04:01:20;;;;;;;2.30;1.38;;;;;;;14.94;100.00;100811.28;6272886;28;20183;-75
2022/09/10 04:04:21;;;;;;;2.30;1.33;;;;;;;14.95;100.00;100815.63;6272640;28;20071;-75
2022/09/10 04:07:22;;;;;;;2.75;1.20;;;;;;;14.93;100.00;100821.97;6272883;28;20049;-76
2022/09/10 04:10:24;;;;;;;3.40;1.48;;;;;;;14.91;100.00;100808.00;6272459;28;20049;-76
2022/09/10 04:13:26;;;;;;;5.85;1.98;;;;;;;14.87;100.00;100809.19;6273079;28;20049;-75
2022/09/10 04:16:30;;;;;;;1.85;1.33;;;;;;;14.85;100.00;100809.31;6272239;28;20055;-75
2022/09/10 04:19:32;;;;;;;2.22;1.50;;;;;;;14.85;100.00;100809.31;6272855;28;20053;-72
2022/09/10 04:22:34;;;;;;;7.03;1.95;;;;;;;14.85;100.00;100811.06;6272062;28;20052;-74
2022/09/10 04:25:35;;;;;;;2.30;1.55;;;;;;;14.85;100.00;100811.94;6272574;28;20053;-74
2022/09/10 04:28:37;;;;;;;2.83;1.70;;;;;;;14.87;100.00;100812.66;6272467;28;20049;-74
2022/09/10 04:31:40;;;;;;;3.47;1.88;;;;;;;14.87;100.00;100814.47;6272007;28;20083;-73
2022/09/10 04:34:43;;;;;;;2.10;1.40;;;;;;;14.86;100.00;100821.56;6271377;28;20045;-74
2022/09/10 04:37:44;;;;;;;2.88;1.52;;;;;;;14.83;100.00;100820.94;6270597;28;20045;-72
2022/09/10 04:40:46;;;;;;;5.57;1.88;;;;;;;14.81;100.00;100818.41;6270083;28;20041;-74
2022/09/10 04:43:47;;;;;;;1.17;1.08;;;;;;;14.82;100.00;100822.72;6270057;28;20040;-74
2022/09/10 04:46:50;;;;;;;2.35;1.48;;;;;;;14.83;100.00;100828.88;6270547;28;20134;-74
2022/09/10 04:49:52;;;;;;;2.70;1.83;;;;;;;14.83;100.00;100831.50;6269753;28;20515;-74
2022/09/10 04:52:53;;;;;;;2.42;1.65;;;;;;;14.84;100.00;100828.75;6270476;28;20497;-74
2022/09/10 04:55:55;;;;;;;2.97;1.90;;;;;;;14.84;100.00;100830.56;6269973;28;20052;-74
2022/09/10 04:58:56;;;;;;;4.53;2.00;;;;;;;14.86;100.00;100832.16;6269289;28;20045;-74
2022/09/10 05:01:59;;;;;;;2.78;2.03;;;;;;;14.86;100.00;100829.50;6271219;28;20044;-74
2022/09/10 05:05:00;;;;;;;2.17;1.40;;;;;;;14.86;100.00;100829.50;6271307;28;20060;-74
2022/09/10 05:08:06;;;;;;;3.33;2.10;;;;;;;14.89;100.00;100825.78;6270611;28;20416;-73
2022/09/10 05:11:08;;;;;;;3.63;2.03;;;;;;;14.90;100.00;100827.50;6270633;28;20045;-74
2022/09/10 05:14:09;;;;;;;3.55;2.00;;;;;;;14.90;100.00;100825.69;6270609;28;20051;-74
2022/09/10 05:17:12;;;;;;;2.63;1.98;;;;;;;14.90;100.00;100825.69;6271221;28;20053;-74
2022/09/10 05:20:13;;;;;;;2.70;1.80;;;;;;;14.93;100.00;100821.97;6271154;28;20061;-74
2022/09/10 05:23:15;;;;;;;3.35;2.03;;;;;;;14.94;100.00;100828.94;6269242;28;20067;-74
2022/09/10 05:26:16;;;;;;;2.97;1.90;;;;;;;14.94;100.00;100832.47;6267145;28;20045;-74
2022/09/10 05:29:18;;;;;;;2.92;1.98;;;;;;;14.94;100.00;100832.47;6270977;28;20044;-73
2022/09/10 05:32:20;;;;;;;2.95;2.35;;;;;;;14.94;100.00;100821.88;6270589;28;20049;-74
2022/09/10 05:35:21;;;;;;;4.30;2.28;;;;;;;14.96;100.00;100827.06;6267527;28;20041;-74
2022/09/10 05:38:23;;;;;;;4.25;2.60;;;;;;;14.95;100.00;100826.22;6270929;28;20048;-73
2022/09/10 05:41:25;;;;;;;3.83;2.58;;;;;;;14.96;100.00;100830.53;6270536;28;20045;-74
2022/09/10 05:44:26;;;;;;;3.08;2.40;;;;;;;14.97;100.00;100826.94;6270561;28;20132;-73
2022/09/10 05:47:29;;;;;;;4.63;2.58;;;;;;;15.00;100.00;100833.81;6271250;28;20447;-73
2022/09/10 05:50:30;;;;;;;3.92;2.53;;;;;;;15.00;100.00;100838.28;6270520;28;20049;-74
2022/09/10 05:53:32;;;;;;;7.72;2.20;;;;;;;15.01;100.00;100832.88;6271165;28;20496;-73
2022/09/10 05:56:33;;;;;;;5.38;2.50;;;;;;;15.01;100.00;100826.72;6270709;28;20556;-73
2022/09/10 05:59:35;;;;;;;3.53;2.38;;;;;;;15.05;100.00;100830.84;6271132;28;20056;-73
2022/09/10 06:02:37;;;;;;;4.55;2.35;;;;;;;15.02;100.00;100831.06;6270444;28;20413;-73
2022/09/10 06:05:39;;;;;;;4.80;1.92;;;;;;;15.01;100.00;100834.66;6270535;28;20049;-74
2022/09/10 06:08:40;;;;;;;2.72;2.10;;;;;;;15.03;100.00;100832.75;6270743;28;20075;-73
2022/09/10 06:11:42;;;;;;;3.17;2.15;;;;;;;15.04;100.00;100831.81;6270563;28;20045;-73
2022/09/10 06:14:43;;;;;;;10.55;3.05;;;;;;;15.07;100.00;100837.72;6270421;28;20056;-74
2022/09/10 06:17:46;;;;;;;2.90;2.15;;;;;;;15.12;100.00;100837.38;6270516;28;20049;-73
2022/09/10 06:20:47;;;;;;;3.55;2.25;;;;;;;15.09;100.00;100843.75;6271824;28;20052;-73
2022/09/10 06:23:52;;;;;;;3.88;2.08;;;;;;;15.13;100.00;100845.25;6274962;28;20053;-73
2022/09/10 06:26:54;;;;;;;2.70;2.20;;;;;;;15.19;100.00;100844.81;6275501;28;20082;-73
2022/09/10 06:29:55;;;;;;;3.28;2.00;;;;;;;15.22;100.00;100844.59;6274758;28;20052;-73
2022/09/10 06:32:58;;;;;;;3.28;1.98;;;;;;;15.27;100.00;100849.56;6275269;28;20049;-73
2022/09/10 06:36:02;;;;;;;4.40;2.25;;;;;;;15.28;100.00;100847.75;6273935;28;20045;-73
2022/09/10 06:39:03;;;;;;;4.18;2.28;;;;;;;15.28;100.00;100842.47;6274738;28;20458;-74
2022/09/10 06:42:05;;;;;;;5.70;1.95;;;;;;;15.30;100.00;100848.47;6273666;28;20040;-73
2022/09/10 06:45:07;;;;;;;2.38;2.17;;;;;;;15.28;100.00;100853.06;6272542;28;20523;-73
2022/09/10 06:48:10;;;;;;;3.90;2.17;;;;;;;15.29;100.00;100841.50;6272525;28;20045;-73
2022/09/10 06:51:13;;;;;;;4.20;2.10;;;;;;;15.28;100.00;100839.81;6274091;28;20048;-74
2022/09/10 06:54:14;;;;;;;2.72;1.73;;;;;;;15.28;100.00;100847.75;6274357;28;20450;-74
2022/09/10 06:57:16;;;;;;;2.67;1.95;;;;;;;15.28;100.00;100842.47;6274470;28;20719;-73
2022/09/10 07:00:18;;;;;;;2.95;1.90;;;;;;;15.30;100.00;100851.97;6274571;28;20049;-74
2022/09/10 07:03:21;;;;;;;1.88;1.42;;;;;;;15.33;100.00;100851.75;6274456;28;20044;-74
2022/09/10 07:06:23;;;;;;;3.08;1.83;;;;;;;15.32;100.00;100850.06;6274027;28;20053;-74
2022/09/10 07:09:25;;;;;;;2.78;1.95;;;;;;;15.30;100.00;100848.47;6274287;28;20052;-74
2022/09/10 07:12:26;;;;;;;4.22;1.98;;;;;;;15.31;100.00;100855.50;6273976;28;20045;-74
2022/09/10 07:15:27;;;;;;;4.35;2.00;;;;;;;15.35;100.00;100857.81;6273722;28;20524;-74
2022/09/10 07:18:30;;;;;;;2.55;1.80;;;;;;;15.39;100.00;100855.75;6274472;28;20053;-74
2022/09/10 07:21:36;;;;;;;4.38;2.00;;;;;;;15.37;100.00;100850.59;6273777;28;20049;-74
2022/09/10 07:24:37;;;;;;;2.70;1.88;;;;;;;15.40;100.00;100860.13;6273453;28;20554;-74
2022/09/10 07:27:39;;;;;;;5.53;2.15;;;;;;;15.40;100.00;100860.97;6274055;28;20489;-74
2022/09/10 07:30:40;;;;;;;2.42;1.70;;;;;;;15.43;100.00;100863.38;6273206;28;20045;-72
2022/09/10 07:33:44;;;;;;;3.22;2.15;;;;;;;15.47;100.00;100871.94;6273245;28;20488;-73
2022/09/10 07:36:45;;;;;;;2.55;1.95;;;;;;;15.51;100.00;100869.94;6273465;28;20527;-73
2022/09/10 07:39:47;;;;;;;3.75;2.13;;;;;;;15.53;100.00;100879.44;6273471;28;20056;-73
2022/09/10 07:42:48;;;;;;;3.05;2.20;;;;;;;15.61;100.00;100881.56;6273526;28;20052;-73
2022/09/10 07:45:49;;;;;;;1.95;1.73;;;;;;;15.66;100.00;100884.75;6273285;28;20057;-73
2022/09/10 07:48:55;;;;;;;3.97;2.13;;;;;;;15.72;100.00;100879.03;6273543;28;20060;-73
2022/09/10 07:51:56;;;;;;;4.68;2.00;;;;;;;15.78;100.00;100885.66;6273149;28;20045;-73
2022/09/10 07:54:59;;;;;;;4.13;2.70;;;;;;;15.81;100.00;100888.94;6272750;28;20142;-74
2022/09/10 07:58:00;;;;;;;4.65;2.28;;;;;;;15.87;100.00;100888.50;6273391;28;20049;-73
2022/09/10 08:01:07;;;;;;;3.38;1.88;;;;;;;15.93;100.00;100887.19;6272910;28;20520;-73
2022/09/10 08:04:10;;;;;;;7.32;2.00;;;;;;;16.04;100.00;100889.06;6272604;28;20045;-73
2022/09/10 08:07:11;;;;;;;2.95;1.70;;;;;;;16.12;100.00;100889.31;6272910;28;20056;-72
2022/09/10 08:10:13;;;;;;;2.63;1.70;;;;;;;16.21;100.00;100886.84;6272402;28;20045;-73
2022/09/10 08:13:14;;;;;;;2.47;1.73;;;;;;;16.34;100.00;100886.75;6272888;28;20041;-73
2022/09/10 08:16:17;;;;;;;2.40;1.05;;;;;;;16.41;100.00;100895.97;6269656;28;20037;-74
2022/09/10 08:19:20;;;;;;;1.40;1.30;;;;;;;16.42;100.00;100900.28;6272652;28;20049;-73
2022/09/10 08:22:21;;;;;;;3.15;1.38;;;;;;;16.40;100.00;100901.38;6272230;28;20056;-73
2022/09/10 08:25:23;;;;;;;1.35;1.02;;;;;;;16.44;100.00;100905.47;6272558;28;20053;-74
2022/09/10 08:28:26;;;;;;;2.15;1.35;;;;;;;16.49;100.00;100908.66;6272535;28;20053;-73
2022/09/10 08:31:27;;;;;;;2.05;1.30;;;;;;;16.48;100.00;100907.78;6272040;28;20144;-73
2022/09/10 08:34:29;;;;;;;3.92;1.30;;;;;;;16.51;100.00;100917.31;6271833;28;20056;-73
2022/09/10 08:37:32;;;;;;;3.22;1.33;;;;;;;16.49;100.00;100916.63;6272187;28;20055;-73
2022/09/10 08:40:33;;;;;;;0.90;0.90;;;;;;;16.53;100.00;100920.69;6271800;28;20415;-73
2022/09/10 08:43:40;;;;;;;2.40;1.63;;;;;;;16.51;100.00;100921.78;6271387;28;20048;-72
2022/09/10 08:46:47;;;;;;;1.83;1.10;;;;;;;16.47;100.00;100923.81;6272258;28;20063;-74
2022/09/10 08:49:53;;;;;;;1.85;1.10;;;;;;;16.40;100.00;100927.91;6271716;28;20048;-74
2022/09/10 08:53:03;;;;;;;1.83;1.33;;;;;;;16.47;100.00;100926.47;6271954;28;20053;-73
2022/09/10 08:56:13;;;;;;;2.65;1.63;;;;;;;16.54;100.00;100926.88;6271430;28;20654;-74
2022/09/10 08:59:21;;;;;;;2.15;1.50;;;;;;;16.60;100.00;100934.38;6271865;28;20048;-73
2022/09/10 09:02:31;;;;;;;1.55;1.38;;;;;;;16.65;100.00;100926.91;6271428;28;20056;-74
2022/09/10 09:05:44;;;;;;;2.13;1.27;;;;;;;16.68;100.00;100932.81;6271340;28;20057;-74
2022/09/10 09:08:49;;;;;;;2.55;1.20;;;;;;;16.77;100.00;100935.78;6271850;28;20049;-73
2022/09/10 09:11:58;;;;;;;3.08;1.30;;;;;;;16.80;100.00;100941.69;6271329;28;20095;-71
2022/09/10 09:15:09;;;;;;;3.63;1.10;;;;;;;16.80;100.00;100931.06;6271287;28;20187;-71
2022/09/10 09:18:20;;;;;;;2.60;1.10;;;;;;;16.88;100.00;100933.97;6271667;28;20447;-71
2022/09/10 09:21:31;;;;;;;9.20;4.20;;;;;;;16.85;100.00;100931.56;6271214;28;20056;-71
2022/09/10 09:24:43;;;;;;;3.35;1.73;;;;;;;16.90;100.00;100933.88;6270859;28;20449;-71
2022/09/10 09:27:45;;;;;;;1.58;1.15;;;;;;;16.94;100.00;100935.31;6271489;28;20048;-71
2022/09/10 09:30:49;;;;;;;2.28;0.90;;;;;;;16.97;100.00;100933.25;6270717;28;20408;-71
2022/09/10 09:33:55;;;;;;;1.27;1.00;;;;;;;17.04;100.00;100931.00;6271109;28;20041;-70
2022/09/10 09:37:02;;;;;;;2.20;1.20;;;;;;;17.13;100.00;100932.94;6271572;28;20456;-77
2022/09/10 09:40:13;;;;;;;3.03;1.40;;;;;;;17.21;100.00;100938.50;6272700;28;20496;-80
2022/09/10 09:43:24;;;;;;;1.25;1.00;;;;;;;17.23;100.00;100941.88;6274163;28;20052;-79
2022/09/10 09:46:26;;;;;;;3.92;1.40;;;;;;;17.25;100.00;100933.78;6271327;28;20408;-76
2022/09/10 09:49:28;;;;;;;1.17;0.98;;;;;;;17.28;100.00;100927.38;6271873;28;20413;-76
2022/09/10 09:52:32;;;;;;;1.30;1.00;;;;;;;17.24;100.00;100929.44;6272626;28;20049;-77
2022/09/10 09:55:38;;;;;;;1.30;1.20;;;;;;;17.23;100.00;100925.94;6275148;28;20052;-76
2022/09/10 09:58:46;;;;;;;1.10;1.00;;;;;;;17.19;100.00;100927.13;6278557;28;20084;-77
2022/09/10 10:01:48;;;;;;;2.20;1.10;;;;;;;17.15;100.00;100932.81;6276344;28;20049;-76
2022/09/10 10:05:05;;;;;;;1.08;0.93;;;;;;;17.14;100.00;100924.00;6274942;28;20056;-72
2022/09/10 10:08:27;;;;;;;2.45;0.90;;;;;;;17.14;100.00;100929.31;6273042;28;20041;-71
2022/09/10 10:11:50;;;;;;;1.75;0.88;;;;;;;17.30;100.00;100925.44;6272474;28;20060;-70
2022/09/10 10:14:51;;;;;;;1.27;0.82;;;;;;;17.26;100.00;100930.19;6271805;28;20041;-70
2022/09/10 10:17:53;;;;;;;0.82;0.82;;;;;;;17.32;100.00;100923.53;6272953;28;20049;-70
2022/09/10 10:21:18;;;;;;;2.58;1.02;;;;;;;17.30;100.00;100920.13;6274909;28;20048;-70
2022/09/10 10:24:29;;;;;;;1.08;0.85;;;;;;;17.37;100.00;100916.03;6273682;28;20567;-70
2022/09/10 10:27:34;;;;;;;2.53;1.00;;;;;;;17.33;100.00;100914.59;6275058;28;20049;-70
2022/09/10 10:30:35;;;;;;;0.77;0.70;;;;;;;17.35;100.00;100915.28;6275158;28;20052;-70
2022/09/10 10:33:46;;;;;;;5.00;1.23;;;;;;;17.46;100.00;100917.97;6274969;28;20476;-70
2022/09/10 10:36:58;;;;;;;2.50;0.82;;;;;;;17.47;100.00;100914.34;6275427;28;20049;-70
2022/09/10 10:40:15;;;;;;;1.33;1.00;;;;;;;17.52;100.00;100916.63;6274676;28;20060;-73
2022/09/10 10:43:25;;;;;;;3.17;0.90;;;;;;;17.56;100.00;100913.59;6275159;28;20515;-69
2022/09/10 10:46:36;;;;;;;3.35;0.95;;;;;;;17.63;100.00;100908.66;6274578;28;20447;-70
2022/09/10 10:49:50;;;;;;;1.75;0.90;;;;;;;17.68;100.00;100920.59;6273894;28;20070;-70
2022/09/10 10:53:13;;;;;;;1.10;0.90;;;;;;;17.69;100.00;100919.63;6268368;28;20045;-70
2022/09/10 10:56:22;;;;;;;4.45;1.10;;;;;;;17.72;100.00;100914.06;6274329;28;20091;-70
2022/09/10 10:59:28;;;;;;;;;;;;;;;17.84;100.00;100911.41;6275423;28;20060;-70
2022/09/10 11:02:40;;;;;;;1.25;0.90;;;;;;;18.04;100.00;100912.47;6272767;28;20376;-70
2022/09/10 11:05:46;;;;;;;1.05;0.95;;;;;;;18.15;100.00;100912.41;6273337;28;20052;-70
2022/09/10 11:08:51;;;;;;;1.02;0.90;;;;;;;18.11;100.00;100914.47;6274555;28;20045;-70
2022/09/10 11:11:59;;;;;;;1.20;1.10;;;;;;;18.19;99.76;100912.03;6274291;28;20049;-70
2022/09/10 11:15:19;;;;;;;1.02;0.90;;;;;;;18.30;97.46;100905.78;6273869;28;20459;-70
2022/09/10 11:18:26;;;;;;;1.17;1.00;;;;;;;18.40;100.00;100904.09;6274695;28;20511;-71
2022/09/10 11:21:31;;;;;;;2.50;0.77;;;;;;;18.55;100.00;100907.25;6274000;28;20080;-71
2022/09/10 11:24:41;;;;;;;1.35;1.05;;;;;;;18.64;100.00;100895.84;6273735;28;20079;-71
2022/09/10 11:27:49;;;;;;;1.75;0.80;;;;;;;18.71;100.00;100891.72;6273995;28;20052;-70
2022/09/10 11:30:59;;;;;;;0.88;0.80;;;;;;;18.72;100.00;100888.09;6273813;28;20131;-71
2022/09/10 11:34:05;;;;;;;3.15;1.05;;;;;;;19.04;100.00;100895.13;6273406;28;20045;-71
2022/09/10 11:37:13;;;;;;;0.77;0.75;;;;;;;19.11;95.44;100898.91;6274039;28;20099;-71
2022/09/10 11:40:20;;;;;;;1.85;0.95;;;;;;;18.93;95.13;100896.03;6273295;28;20044;-71
2022/09/10 11:43:30;;;;;;;2.97;0.90;;;;;;;18.79;94.98;100891.06;6273694;28;20516;-72
2022/09/10 11:46:37;;;;;;;2.05;0.77;;;;;;;19.13;96.66;100889.00;6273111;28;20067;-71
2022/09/10 11:49:47;;;;;;;1.35;0.80;;;;;;;19.40;94.98;100896.41;6273801;28;20060;-71
2022/09/10 11:52:49;;;;;;;;;;;;;;;19.30;94.24;100897.31;6273887;28;20048;-74
2022/09/10 11:56:10;;;;;;;2.83;0.80;;;;;;;19.12;94.32;100892.66;6272977;28;20366;-71
2022/09/10 11:59:26;;;;;;;2.08;0.90;;;;;;;18.87;89.57;100883.25;6273523;28;20056;-71
2022/09/10 12:03:03;;;;;;;1.35;0.85;;;;;;;18.67;91.09;100882.28;6273598;28;20049;-71
2022/09/10 12:06:09;;;;;;;1.08;0.98;;;;;;;18.56;91.22;100889.47;6272946;28;20427;-71
2022/09/10 12:09:20;;;;;;;0.95;0.88;;;;;;;18.48;91.40;100893.63;6273247;28;20603;-71
2022/09/10 12:12:30;;;;;;;3.53;1.20;;;;;;;18.40;91.55;100882.78;6273307;28;20049;-72
2022/09/10 12:15:33;;;;;;;1.48;0.98;;;;;;;18.35;92.44;100884.13;6272915;28;20056;-71
2022/09/10 12:18:43;;;;;;;0.93;0.90;;;;;;;18.42;91.76;100880.00;6273280;28;20450;-72
2022/09/10 12:21:50;;;;;;;1.35;0.90;;;;;;;18.46;89.63;100881.44;6272661;28;20484;-72
2022/09/10 12:24:53;;;;;;;1.17;0.80;;;;;;;18.52;90.20;100879.06;6272716;28;20049;-71
2022/09/10 12:27:57;;;;;;;1.77;1.10;;;;;;;18.51;90.75;100889.84;6272991;28;20408;-71
2022/09/10 12:31:02;;;;;;;2.08;1.15;;;;;;;18.54;93.21;100878.97;6272691;28;20090;-71
2022/09/10 12:34:16;;;;;;;2.15;0.98;;;;;;;18.49;91.55;100895.31;6271782;28;20060;-71
2022/09/10 12:37:22;;;;;;;1.10;1.00;;;;;;;18.54;92.43;100889.63;6269585;28;20052;-71
2022/09/10 12:40:46;;;;;;;1.30;0.90;;;;;;;18.57;93.82;100892.00;6270531;28;20052;-72
2022/09/10 12:43:54;;;;;;;1.05;0.95;;;;;;;18.61;96.22;100887.25;6263734;28;20503;-72
2022/09/10 12:47:28;;;;;;;2.85;0.80;;;;;;;18.62;96.43;100884.50;6272339;28;20052;-71
2022/09/10 12:50:35;;;;;;;1.08;0.70;;;;;;;18.63;94.88;100880.00;6272550;28;20057;-72
2022/09/10 12:54:01;;;;;;;0.85;0.82;;;;;;;18.64;94.42;100881.69;6272251;28;20510;-72
2022/09/10 12:57:24;;;;;;;1.60;0.60;;;;;;;18.66;94.65;100880.56;6272233;28;20536;-71
2022/09/10 13:00:27;;;;;;;2.47;0.90;;;;;;;18.72;94.94;100885.41;6271861;28;20412;-72
2022/09/10 13:03:30;;;;;;;1.73;1.15;;;;;;;18.78;96.34;100888.53;6271880;28;20053;-72
2022/09/10 13:06:38;;;;;;;1.17;0.88;;;;;;;18.75;93.02;100885.13;6271301;28;20186;-72
2022/09/10 13:09:40;;;;;;;0.60;0.60;;;;;;;18.75;94.24;100889.63;6265957;28;20056;-70
2022/09/10 13:12:43;;;;;;;0.88;0.63;;;;;;;18.78;95.08;100888.53;6270868;28;20130;-71
2022/09/10 13:15:50;;;;;;;0.82;0.82;;;;;;;18.81;93.86;100893.59;6271260;28;20048;-71
2022/09/10 13:18:54;;;;;;;0.85;0.75;;;;;;;18.84;94.78;100886.16;6271968;28;20056;-72
2022/09/10 13:21:56;;;;;;;3.42;1.20;;;;;;;18.89;97.23;100889.28;6271374;28;20045;-72
2022/09/10 13:25:03;;;;;;;0.98;0.80;;;;;;;19.00;95.17;100891.03;6271066;28;20574;-72
2022/09/10 13:28:39;;;;;;;1.20;0.80;;;;;;;19.06;95.81;100889.66;6271489;28;20063;-72
2022/09/10 13:31:44;;;;;;;0.80;0.80;;;;;;;19.12;95.75;100891.78;6271010;28;20060;-73
2022/09/10 13:35:10;;;;;;;3.17;0.90;;;;;;;19.11;92.63;100901.59;6270819;28;20056;-72
2022/09/10 13:38:38;;;;;;;0.80;0.80;;;;;;;19.06;88.02;100889.66;6271569;28;20397;-72
2022/09/10 13:42:10;;;;;;;0.98;0.82;;;;;;;19.04;85.40;100889.78;6270657;28;20516;-72
2022/09/10 13:45:22;;;;;;;1.73;0.68;;;;;;;19.11;88.25;100895.41;6268564;28;20056;-76
2022/09/10 13:48:27;;;;;;;1.05;0.75;;;;;;;19.15;89.00;100888.84;6272805;28;20059;-77
2022/09/10 13:51:35;;;;;;;1.48;0.63;;;;;;;19.21;88.64;100886.50;6272759;28;20512;-78
2022/09/10 13:54:39;;;;;;;2.05;1.15;;;;;;;19.24;89.08;100888.88;6271328;28;20049;-72
2022/09/10 13:57:43;;;;;;;2.90;0.90;;;;;;;19.19;89.78;100887.59;6269767;28;20059;-71
2022/09/10 14:00:51;;;;;;;2.42;0.70;;;;;;;19.15;91.49;100886.19;6271319;28;20052;-72
2022/09/10 14:03:53;;;;;;;1.77;0.95;;;;;;;19.12;91.47;100897.09;6267262;28;20793;-71
2022/09/10 14:07:05;;;;;;;4.13;0.80;;;;;;;19.11;91.30;100884.75;6259983;28;20054;-73
2022/09/10 14:10:07;;;;;;;1.38;0.73;;;;;;;19.14;91.89;100882.69;6266052;28;20507;-71
2022/09/10 14:13:08;;;;;;;1.70;0.80;;;;;;;19.20;93.89;100882.13;6256208;28;20044;-72
2022/09/10 14:16:14;;;;;;;1.73;0.93;;;;;;;19.30;93.08;100879.50;6262487;28;20045;-72